sensor_id;sensor_type;location;lat;lon;timestamp;P1;durP1;ratioP1;P2;durP2;ratioP2
37851;SDS011;23691;52.486;4.650;2024-02-26T00:01:25;15.40;;;8.60;;
37851;SDS011;23691;52.486;4.650;2024-02-26T00:03:51;14.63;;;8.50;;
37851;SDS011;23691;52.486;4.650;2024-02-26T00:06:17;13.30;;;7.78;;
37851;SDS011;23691;52.486;4.650;2024-02-26T00:08:43;13.40;;;7.75;;
37851;SDS011;23691;52.486;4.650;2024-02-26T00:11:09;13.48;;;7.25;;
37851;SDS011;23691;52.486;4.650;2024-02-26T00:13:35;13.98;;;7.05;;
37851;SDS011;23691;52.486;4.650;2024-02-26T00:16:00;11.77;;;6.82;;
37851;SDS011;23691;52.486;4.650;2024-02-26T00:18:26;13.18;;;6.97;;
37851;SDS011;23691;52.486;4.650;2024-02-26T00:20:51;11.73;;;6.25;;
37851;SDS011;23691;52.486;4.650;2024-02-26T00:23:17;13.13;;;6.32;;
37851;SDS011;23691;52.486;4.650;2024-02-26T00:25:42;11.38;;;5.90;;
37851;SDS011;23691;52.486;4.650;2024-02-26T00:28:10;12.10;;;6.25;;
37851;SDS011;23691;52.486;4.650;2024-02-26T00:30:35;11.77;;;5.68;;
37851;SDS011;23691;52.486;4.650;2024-02-26T00:33:01;11.73;;;5.72;;
37851;SDS011;23691;52.486;4.650;2024-02-26T00:35:26;11.60;;;5.80;;
37851;SDS011;23691;52.486;4.650;2024-02-26T00:37:52;12.60;;;5.78;;
37851;SDS011;23691;52.486;4.650;2024-02-26T00:40:17;13.25;;;5.63;;
37851;SDS011;23691;52.486;4.650;2024-02-26T00:42:43;11.23;;;6.00;;
37851;SDS011;23691;52.486;4.650;2024-02-26T00:45:11;13.25;;;6.03;;
37851;SDS011;23691;52.486;4.650;2024-02-26T00:47:38;12.45;;;6.38;;
37851;SDS011;23691;52.486;4.650;2024-02-26T00:50:06;12.20;;;6.37;;
37851;SDS011;23691;52.486;4.650;2024-02-26T00:52:33;12.70;;;5.85;;
37851;SDS011;23691;52.486;4.650;2024-02-26T00:54:58;12.63;;;7.25;;
37851;SDS011;23691;52.486;4.650;2024-02-26T00:57:24;12.13;;;6.20;;
37851;SDS011;23691;52.486;4.650;2024-02-26T00:59:49;12.63;;;7.13;;
37851;SDS011;23691;52.486;4.650;2024-02-26T01:02:15;13.05;;;7.28;;
37851;SDS011;23691;52.486;4.650;2024-02-26T01:04:41;12.93;;;7.63;;
37851;SDS011;23691;52.486;4.650;2024-02-26T01:07:06;14.32;;;7.55;;
37851;SDS011;23691;52.486;4.650;2024-02-26T01:09:31;14.40;;;7.80;;
37851;SDS011;23691;52.486;4.650;2024-02-26T01:11:57;15.80;;;8.55;;
37851;SDS011;23691;52.486;4.650;2024-02-26T01:14:22;15.05;;;8.82;;
37851;SDS011;23691;52.486;4.650;2024-02-26T01:16:48;14.48;;;8.25;;
37851;SDS011;23691;52.486;4.650;2024-02-26T01:19:13;14.85;;;8.65;;
37851;SDS011;23691;52.486;4.650;2024-02-26T01:21:40;15.95;;;8.95;;
37851;SDS011;23691;52.486;4.650;2024-02-26T01:24:05;16.67;;;9.30;;
37851;SDS011;23691;52.486;4.650;2024-02-26T01:26:35;16.63;;;9.35;;
37851;SDS011;23691;52.486;4.650;2024-02-26T01:29:00;17.10;;;9.45;;
37851;SDS011;23691;52.486;4.650;2024-02-26T01:31:25;17.85;;;9.75;;
37851;SDS011;23691;52.486;4.650;2024-02-26T01:33:51;17.80;;;10.10;;
37851;SDS011;23691;52.486;4.650;2024-02-26T01:36:18;15.32;;;9.60;;
37851;SDS011;23691;52.486;4.650;2024-02-26T01:38:44;17.15;;;9.77;;
37851;SDS011;23691;52.486;4.650;2024-02-26T01:41:09;16.08;;;10.07;;
37851;SDS011;23691;52.486;4.650;2024-02-26T01:43:34;19.40;;;10.18;;
37851;SDS011;23691;52.486;4.650;2024-02-26T01:46:00;16.00;;;9.93;;
37851;SDS011;23691;52.486;4.650;2024-02-26T01:48:25;18.02;;;10.48;;
37851;SDS011;23691;52.486;4.650;2024-02-26T01:53:20;17.88;;;10.52;;
37851;SDS011;23691;52.486;4.650;2024-02-26T01:55:46;18.42;;;10.27;;
37851;SDS011;23691;52.486;4.650;2024-02-26T01:58:11;18.25;;;10.85;;
37851;SDS011;23691;52.486;4.650;2024-02-26T02:00:38;16.80;;;10.77;;
37851;SDS011;23691;52.486;4.650;2024-02-26T02:03:04;19.20;;;11.30;;
37851;SDS011;23691;52.486;4.650;2024-02-26T02:05:30;18.40;;;10.90;;
37851;SDS011;23691;52.486;4.650;2024-02-26T02:07:56;18.27;;;11.38;;
37851;SDS011;23691;52.486;4.650;2024-02-26T02:10:22;22.67;;;11.38;;
37851;SDS011;23691;52.486;4.650;2024-02-26T02:12:48;20.60;;;11.85;;
37851;SDS011;23691;52.486;4.650;2024-02-26T02:15:14;19.48;;;11.82;;
37851;SDS011;23691;52.486;4.650;2024-02-26T02:17:39;20.95;;;11.55;;
37851;SDS011;23691;52.486;4.650;2024-02-26T02:20:08;20.38;;;12.57;;
37851;SDS011;23691;52.486;4.650;2024-02-26T02:22:35;20.27;;;12.27;;
37851;SDS011;23691;52.486;4.650;2024-02-26T02:25:00;20.20;;;11.77;;
37851;SDS011;23691;52.486;4.650;2024-02-26T02:27:26;20.65;;;12.25;;
37851;SDS011;23691;52.486;4.650;2024-02-26T02:29:52;20.52;;;11.93;;
37851;SDS011;23691;52.486;4.650;2024-02-26T02:32:18;22.70;;;12.82;;
37851;SDS011;23691;52.486;4.650;2024-02-26T02:34:44;19.88;;;12.18;;
37851;SDS011;23691;52.486;4.650;2024-02-26T02:37:10;21.83;;;12.80;;
37851;SDS011;23691;52.486;4.650;2024-02-26T02:39:36;23.85;;;13.52;;
37851;SDS011;23691;52.486;4.650;2024-02-26T02:42:01;22.75;;;13.38;;
37851;SDS011;23691;52.486;4.650;2024-02-26T02:44:27;21.55;;;13.30;;
37851;SDS011;23691;52.486;4.650;2024-02-26T02:46:52;22.30;;;13.60;;
37851;SDS011;23691;52.486;4.650;2024-02-26T02:49:18;22.15;;;13.38;;
37851;SDS011;23691;52.486;4.650;2024-02-26T02:51:44;21.95;;;13.52;;
37851;SDS011;23691;52.486;4.650;2024-02-26T02:54:11;22.73;;;13.32;;
37851;SDS011;23691;52.486;4.650;2024-02-26T02:56:37;21.33;;;13.27;;
37851;SDS011;23691;52.486;4.650;2024-02-26T02:59:05;22.15;;;13.07;;
37851;SDS011;23691;52.486;4.650;2024-02-26T03:01:30;22.98;;;13.63;;
37851;SDS011;23691;52.486;4.650;2024-02-26T03:03:55;21.13;;;12.93;;
37851;SDS011;23691;52.486;4.650;2024-02-26T03:06:21;21.08;;;12.73;;
37851;SDS011;23691;52.486;4.650;2024-02-26T03:08:46;20.88;;;12.68;;
37851;SDS011;23691;52.486;4.650;2024-02-26T03:11:15;21.30;;;12.35;;
37851;SDS011;23691;52.486;4.650;2024-02-26T03:13:41;21.08;;;12.55;;
37851;SDS011;23691;52.486;4.650;2024-02-26T03:16:06;19.88;;;12.27;;
37851;SDS011;23691;52.486;4.650;2024-02-26T03:18:32;21.20;;;12.82;;
37851;SDS011;23691;52.486;4.650;2024-02-26T03:20:58;23.85;;;12.82;;
37851;SDS011;23691;52.486;4.650;2024-02-26T03:23:23;21.13;;;13.13;;
37851;SDS011;23691;52.486;4.650;2024-02-26T03:25:49;20.55;;;12.27;;
37851;SDS011;23691;52.486;4.650;2024-02-26T03:28:17;20.55;;;12.77;;
37851;SDS011;23691;52.486;4.650;2024-02-26T03:30:43;21.58;;;13.02;;
37851;SDS011;23691;52.486;4.650;2024-02-26T03:33:08;20.58;;;12.82;;
37851;SDS011;23691;52.486;4.650;2024-02-26T03:35:33;21.30;;;12.70;;
37851;SDS011;23691;52.486;4.650;2024-02-26T03:37:59;22.52;;;12.93;;
37851;SDS011;23691;52.486;4.650;2024-02-26T03:40:24;23.63;;;13.77;;
37851;SDS011;23691;52.486;4.650;2024-02-26T03:42:50;20.60;;;12.98;;
37851;SDS011;23691;52.486;4.650;2024-02-26T03:45:17;21.85;;;13.15;;
37851;SDS011;23691;52.486;4.650;2024-02-26T03:47:43;20.85;;;12.90;;
37851;SDS011;23691;52.486;4.650;2024-02-26T03:50:09;21.90;;;13.07;;
37851;SDS011;23691;52.486;4.650;2024-02-26T03:52:34;20.98;;;13.05;;
37851;SDS011;23691;52.486;4.650;2024-02-26T03:57:28;21.10;;;13.20;;
37851;SDS011;23691;52.486;4.650;2024-02-26T03:59:54;20.95;;;13.23;;
37851;SDS011;23691;52.486;4.650;2024-02-26T04:02:20;21.10;;;13.38;;
37851;SDS011;23691;52.486;4.650;2024-02-26T04:04:46;22.30;;;13.55;;
37851;SDS011;23691;52.486;4.650;2024-02-26T04:07:19;21.10;;;13.15;;
37851;SDS011;23691;52.486;4.650;2024-02-26T04:09:44;22.85;;;12.95;;
37851;SDS011;23691;52.486;4.650;2024-02-26T04:12:09;22.65;;;13.75;;
37851;SDS011;23691;52.486;4.650;2024-02-26T04:14:35;22.00;;;13.25;;
37851;SDS011;23691;52.486;4.650;2024-02-26T04:17:01;21.75;;;13.60;;
37851;SDS011;23691;52.486;4.650;2024-02-26T04:19:26;23.35;;;13.68;;
37851;SDS011;23691;52.486;4.650;2024-02-26T04:21:52;22.95;;;13.75;;
37851;SDS011;23691;52.486;4.650;2024-02-26T04:24:17;23.50;;;13.98;;
37851;SDS011;23691;52.486;4.650;2024-02-26T04:26:42;22.20;;;14.05;;
37851;SDS011;23691;52.486;4.650;2024-02-26T04:29:08;22.35;;;13.88;;
37851;SDS011;23691;52.486;4.650;2024-02-26T04:31:33;24.10;;;14.02;;
37851;SDS011;23691;52.486;4.650;2024-02-26T04:33:59;22.67;;;14.05;;
37851;SDS011;23691;52.486;4.650;2024-02-26T04:36:24;22.40;;;13.43;;
37851;SDS011;23691;52.486;4.650;2024-02-26T04:38:51;20.90;;;13.70;;
37851;SDS011;23691;52.486;4.650;2024-02-26T04:41:16;21.00;;;13.30;;
37851;SDS011;23691;52.486;4.650;2024-02-26T04:43:42;21.70;;;13.65;;
37851;SDS011;23691;52.486;4.650;2024-02-26T04:46:07;21.52;;;13.55;;
37851;SDS011;23691;52.486;4.650;2024-02-26T04:48:34;21.17;;;13.20;;
37851;SDS011;23691;52.486;4.650;2024-02-26T04:51:00;21.05;;;12.95;;
37851;SDS011;23691;52.486;4.650;2024-02-26T04:53:26;21.02;;;12.57;;
37851;SDS011;23691;52.486;4.650;2024-02-26T04:55:51;20.80;;;12.85;;
37851;SDS011;23691;52.486;4.650;2024-02-26T04:58:17;19.83;;;12.82;;
37851;SDS011;23691;52.486;4.650;2024-02-26T05:00:42;19.35;;;11.88;;
37851;SDS011;23691;52.486;4.650;2024-02-26T05:03:07;19.83;;;12.60;;
37851;SDS011;23691;52.486;4.650;2024-02-26T05:05:37;22.02;;;12.82;;
37851;SDS011;23691;52.486;4.650;2024-02-26T05:08:03;20.30;;;12.82;;
37851;SDS011;23691;52.486;4.650;2024-02-26T05:10:29;18.85;;;12.00;;
37851;SDS011;23691;52.486;4.650;2024-02-26T05:12:54;19.50;;;12.20;;
37851;SDS011;23691;52.486;4.650;2024-02-26T05:15:19;19.25;;;12.05;;
37851;SDS011;23691;52.486;4.650;2024-02-26T05:17:45;21.30;;;12.13;;
37851;SDS011;23691;52.486;4.650;2024-02-26T05:20:10;18.15;;;11.90;;
37851;SDS011;23691;52.486;4.650;2024-02-26T05:22:36;18.73;;;11.13;;
37851;SDS011;23691;52.486;4.650;2024-02-26T05:25:02;19.13;;;11.10;;
37851;SDS011;23691;52.486;4.650;2024-02-26T05:27:28;18.70;;;11.25;;
37851;SDS011;23691;52.486;4.650;2024-02-26T05:29:54;18.10;;;10.02;;
37851;SDS011;23691;52.486;4.650;2024-02-26T05:32:19;18.13;;;11.15;;
37851;SDS011;23691;52.486;4.650;2024-02-26T05:34:44;15.23;;;9.00;;
37851;SDS011;23691;52.486;4.650;2024-02-26T05:37:10;15.85;;;9.73;;
37851;SDS011;23691;52.486;4.650;2024-02-26T05:39:36;15.55;;;10.15;;
37851;SDS011;23691;52.486;4.650;2024-02-26T05:42:02;15.43;;;8.90;;
37851;SDS011;23691;52.486;4.650;2024-02-26T05:44:27;15.70;;;8.77;;
37851;SDS011;23691;52.486;4.650;2024-02-26T05:46:53;15.20;;;9.00;;
37851;SDS011;23691;52.486;4.650;2024-02-26T05:49:18;14.63;;;8.77;;
37851;SDS011;23691;52.486;4.650;2024-02-26T05:51:43;14.73;;;8.90;;
37851;SDS011;23691;52.486;4.650;2024-02-26T05:54:09;13.82;;;7.88;;
37851;SDS011;23691;52.486;4.650;2024-02-26T05:56:35;13.88;;;7.85;;
37851;SDS011;23691;52.486;4.650;2024-02-26T05:59:00;12.15;;;7.10;;
37851;SDS011;23691;52.486;4.650;2024-02-26T06:01:26;13.88;;;7.53;;
37851;SDS011;23691;52.486;4.650;2024-02-26T06:03:51;12.38;;;6.60;;
37851;SDS011;23691;52.486;4.650;2024-02-26T06:06:17;11.48;;;6.40;;
37851;SDS011;23691;52.486;4.650;2024-02-26T06:08:43;11.43;;;6.32;;
37851;SDS011;23691;52.486;4.650;2024-02-26T06:11:08;11.23;;;6.22;;
37851;SDS011;23691;52.486;4.650;2024-02-26T06:13:34;10.82;;;5.63;;
37851;SDS011;23691;52.486;4.650;2024-02-26T06:16:02;11.07;;;5.68;;
37851;SDS011;23691;52.486;4.650;2024-02-26T06:18:28;10.43;;;5.53;;
37851;SDS011;23691;52.486;4.650;2024-02-26T06:20:56;12.73;;;5.75;;
37851;SDS011;23691;52.486;4.650;2024-02-26T06:23:21;10.63;;;5.68;;
37851;SDS011;23691;52.486;4.650;2024-02-26T06:25:47;12.77;;;5.72;;
37851;SDS011;23691;52.486;4.650;2024-02-26T06:28:15;12.52;;;5.50;;
37851;SDS011;23691;52.486;4.650;2024-02-26T06:30:40;13.20;;;6.15;;
37851;SDS011;23691;52.486;4.650;2024-02-26T06:33:06;13.30;;;5.68;;
37851;SDS011;23691;52.486;4.650;2024-02-26T06:35:33;11.18;;;5.55;;
37851;SDS011;23691;52.486;4.650;2024-02-26T06:37:58;10.18;;;5.65;;
37851;SDS011;23691;52.486;4.650;2024-02-26T06:40:23;11.15;;;5.68;;
37851;SDS011;23691;52.486;4.650;2024-02-26T06:42:59;13.18;;;5.63;;
37851;SDS011;23691;52.486;4.650;2024-02-26T06:45:31;12.20;;;5.45;;
37851;SDS011;23691;52.486;4.650;2024-02-26T06:47:57;12.02;;;5.53;;
37851;SDS011;23691;52.486;4.650;2024-02-26T06:50:28;10.63;;;5.07;;
37851;SDS011;23691;52.486;4.650;2024-02-26T06:52:56;11.65;;;5.60;;
37851;SDS011;23691;52.486;4.650;2024-02-26T06:55:21;12.38;;;5.53;;
37851;SDS011;23691;52.486;4.650;2024-02-26T06:57:47;11.05;;;5.20;;
37851;SDS011;23691;52.486;4.650;2024-02-26T07:00:12;11.00;;;5.18;;
37851;SDS011;23691;52.486;4.650;2024-02-26T07:02:44;11.00;;;5.63;;
37851;SDS011;23691;52.486;4.650;2024-02-26T07:05:09;10.80;;;5.35;;
37851;SDS011;23691;52.486;4.650;2024-02-26T07:07:35;13.80;;;5.85;;
37851;SDS011;23691;52.486;4.650;2024-02-26T07:10:03;11.30;;;5.28;;
37851;SDS011;23691;52.486;4.650;2024-02-26T07:12:30;10.80;;;5.00;;
37851;SDS011;23691;52.486;4.650;2024-02-26T07:14:59;9.20;;;4.72;;
37851;SDS011;23691;52.486;4.650;2024-02-26T07:17:25;9.75;;;4.40;;
37851;SDS011;23691;52.486;4.650;2024-02-26T07:19:50;9.85;;;4.63;;
37851;SDS011;23691;52.486;4.650;2024-02-26T07:22:16;9.65;;;4.43;;
37851;SDS011;23691;52.486;4.650;2024-02-26T07:27:10;10.48;;;4.32;;
37851;SDS011;23691;52.486;4.650;2024-02-26T07:29:35;12.25;;;4.65;;
37851;SDS011;23691;52.486;4.650;2024-02-26T07:32:00;10.07;;;4.97;;
37851;SDS011;23691;52.486;4.650;2024-02-26T07:34:25;12.23;;;5.80;;
37851;SDS011;23691;52.486;4.650;2024-02-26T07:36:54;38.13;;;17.00;;
37851;SDS011;23691;52.486;4.650;2024-02-26T07:39:19;27.33;;;13.70;;
37851;SDS011;23691;52.486;4.650;2024-02-26T07:41:44;16.52;;;8.48;;
37851;SDS011;23691;52.486;4.650;2024-02-26T07:44:13;12.98;;;6.50;;
37851;SDS011;23691;52.486;4.650;2024-02-26T07:46:38;12.50;;;6.97;;
37851;SDS011;23691;52.486;4.650;2024-02-26T07:49:04;12.32;;;5.32;;
37851;SDS011;23691;52.486;4.650;2024-02-26T07:51:29;10.18;;;4.65;;
37851;SDS011;23691;52.486;4.650;2024-02-26T07:53:54;8.60;;;4.38;;
37851;SDS011;23691;52.486;4.650;2024-02-26T07:56:20;9.07;;;4.55;;
37851;SDS011;23691;52.486;4.650;2024-02-26T07:58:47;10.30;;;3.92;;
37851;SDS011;23691;52.486;4.650;2024-02-26T08:01:13;8.50;;;3.92;;
37851;SDS011;23691;52.486;4.650;2024-02-26T08:03:39;9.30;;;4.30;;
37851;SDS011;23691;52.486;4.650;2024-02-26T08:06:05;10.82;;;4.13;;
37851;SDS011;23691;52.486;4.650;2024-02-26T08:08:30;8.88;;;4.35;;
37851;SDS011;23691;52.486;4.650;2024-02-26T08:10:56;10.18;;;4.90;;
37851;SDS011;23691;52.486;4.650;2024-02-26T08:13:21;7.75;;;3.60;;
37851;SDS011;23691;52.486;4.650;2024-02-26T08:15:47;9.82;;;4.43;;
37851;SDS011;23691;52.486;4.650;2024-02-26T08:18:12;10.00;;;4.75;;
37851;SDS011;23691;52.486;4.650;2024-02-26T08:20:37;11.15;;;4.80;;
37851;SDS011;23691;52.486;4.650;2024-02-26T08:23:03;12.05;;;6.05;;
37851;SDS011;23691;52.486;4.650;2024-02-26T08:25:29;11.05;;;4.88;;
37851;SDS011;23691;52.486;4.650;2024-02-26T08:27:54;11.10;;;3.95;;
37851;SDS011;23691;52.486;4.650;2024-02-26T08:30:19;14.80;;;7.43;;
37851;SDS011;23691;52.486;4.650;2024-02-26T08:32:48;11.15;;;4.22;;
37851;SDS011;23691;52.486;4.650;2024-02-26T08:35:13;9.00;;;4.00;;
37851;SDS011;23691;52.486;4.650;2024-02-26T08:37:39;10.80;;;3.67;;
37851;SDS011;23691;52.486;4.650;2024-02-26T08:40:05;9.68;;;4.30;;
37851;SDS011;23691;52.486;4.650;2024-02-26T08:42:31;10.48;;;3.72;;
37851;SDS011;23691;52.486;4.650;2024-02-26T08:44:57;10.20;;;3.35;;
37851;SDS011;23691;52.486;4.650;2024-02-26T08:47:25;6.93;;;2.60;;
37851;SDS011;23691;52.486;4.650;2024-02-26T08:49:50;9.38;;;2.80;;
37851;SDS011;23691;52.486;4.650;2024-02-26T08:52:16;7.50;;;2.95;;
37851;SDS011;23691;52.486;4.650;2024-02-26T08:54:41;8.18;;;2.63;;
37851;SDS011;23691;52.486;4.650;2024-02-26T08:57:06;9.68;;;2.70;;
37851;SDS011;23691;52.486;4.650;2024-02-26T08:59:32;7.57;;;2.65;;
37851;SDS011;23691;52.486;4.650;2024-02-26T09:01:57;7.13;;;2.60;;
37851;SDS011;23691;52.486;4.650;2024-02-26T09:04:22;7.57;;;2.67;;
37851;SDS011;23691;52.486;4.650;2024-02-26T09:06:48;6.43;;;2.58;;
37851;SDS011;23691;52.486;4.650;2024-02-26T09:09:14;7.47;;;2.65;;
37851;SDS011;23691;52.486;4.650;2024-02-26T09:11:39;6.32;;;2.65;;
37851;SDS011;23691;52.486;4.650;2024-02-26T09:14:05;9.60;;;2.80;;
37851;SDS011;23691;52.486;4.650;2024-02-26T09:16:30;8.23;;;2.95;;
37851;SDS011;23691;52.486;4.650;2024-02-26T09:18:56;8.52;;;2.75;;
37851;SDS011;23691;52.486;4.650;2024-02-26T09:21:21;7.68;;;2.78;;
37851;SDS011;23691;52.486;4.650;2024-02-26T09:23:50;7.38;;;3.20;;
37851;SDS011;23691;52.486;4.650;2024-02-26T09:26:16;6.00;;;1.85;;
37851;SDS011;23691;52.486;4.650;2024-02-26T09:28:42;8.23;;;2.53;;
37851;SDS011;23691;52.486;4.650;2024-02-26T09:31:07;5.35;;;2.03;;
37851;SDS011;23691;52.486;4.650;2024-02-26T09:33:33;8.88;;;2.50;;
37851;SDS011;23691;52.486;4.650;2024-02-26T09:35:58;7.38;;;2.50;;
37851;SDS011;23691;52.486;4.650;2024-02-26T09:38:25;6.10;;;2.42;;
37851;SDS011;23691;52.486;4.650;2024-02-26T09:40:51;7.03;;;2.20;;
37851;SDS011;23691;52.486;4.650;2024-02-26T09:43:17;6.55;;;2.20;;
37851;SDS011;23691;52.486;4.650;2024-02-26T09:45:49;7.07;;;2.15;;
37851;SDS011;23691;52.486;4.650;2024-02-26T09:48:16;6.72;;;2.40;;
37851;SDS011;23691;52.486;4.650;2024-02-26T09:50:43;7.97;;;2.40;;
37851;SDS011;23691;52.486;4.650;2024-02-26T09:53:08;5.68;;;1.83;;
37851;SDS011;23691;52.486;4.650;2024-02-26T09:55:36;5.95;;;2.03;;
37851;SDS011;23691;52.486;4.650;2024-02-26T09:58:01;6.38;;;2.40;;
37851;SDS011;23691;52.486;4.650;2024-02-26T10:00:30;8.20;;;2.60;;
37851;SDS011;23691;52.486;4.650;2024-02-26T10:03:01;6.05;;;1.98;;
37851;SDS011;23691;52.486;4.650;2024-02-26T10:05:28;8.27;;;2.30;;
37851;SDS011;23691;52.486;4.650;2024-02-26T10:07:54;6.80;;;2.22;;
37851;SDS011;23691;52.486;4.650;2024-02-26T10:10:22;9.77;;;2.33;;
37851;SDS011;23691;52.486;4.650;2024-02-26T10:12:48;10.07;;;2.28;;
37851;SDS011;23691;52.486;4.650;2024-02-26T10:15:13;8.45;;;2.28;;
37851;SDS011;23691;52.486;4.650;2024-02-26T10:17:39;10.10;;;2.28;;
37851;SDS011;23691;52.486;4.650;2024-02-26T10:20:14;8.15;;;2.47;;
37851;SDS011;23691;52.486;4.650;2024-02-26T10:22:41;6.05;;;2.20;;
37851;SDS011;23691;52.486;4.650;2024-02-26T10:25:07;7.25;;;2.03;;
37851;SDS011;23691;52.486;4.650;2024-02-26T10:27:33;7.50;;;2.03;;
37851;SDS011;23691;52.486;4.650;2024-02-26T10:30:02;7.13;;;2.00;;
37851;SDS011;23691;52.486;4.650;2024-02-26T10:32:29;7.68;;;2.30;;
37851;SDS011;23691;52.486;4.650;2024-02-26T10:34:55;6.95;;;2.20;;
37851;SDS011;23691;52.486;4.650;2024-02-26T10:37:21;8.13;;;2.20;;
37851;SDS011;23691;52.486;4.650;2024-02-26T10:39:47;7.70;;;2.55;;
37851;SDS011;23691;52.486;4.650;2024-02-26T10:42:13;7.57;;;2.17;;
37851;SDS011;23691;52.486;4.650;2024-02-26T10:44:40;8.15;;;1.88;;
37851;SDS011;23691;52.486;4.650;2024-02-26T10:47:07;8.23;;;1.90;;
37851;SDS011;23691;52.486;4.650;2024-02-26T10:49:33;5.82;;;1.77;;
37851;SDS011;23691;52.486;4.650;2024-02-26T10:52:00;7.05;;;1.85;;
37851;SDS011;23691;52.486;4.650;2024-02-26T10:54:26;5.32;;;1.70;;
37851;SDS011;23691;52.486;4.650;2024-02-26T10:56:54;6.63;;;1.75;;
37851;SDS011;23691;52.486;4.650;2024-02-26T10:59:21;9.30;;;1.80;;
37851;SDS011;23691;52.486;4.650;2024-02-26T11:01:48;8.45;;;1.60;;
37851;SDS011;23691;52.486;4.650;2024-02-26T11:04:14;5.07;;;1.70;;
37851;SDS011;23691;52.486;4.650;2024-02-26T11:06:42;6.70;;;1.70;;
37851;SDS011;23691;52.486;4.650;2024-02-26T11:09:10;6.53;;;1.60;;
37851;SDS011;23691;52.486;4.650;2024-02-26T11:11:38;5.32;;;1.52;;
37851;SDS011;23691;52.486;4.650;2024-02-26T11:14:04;6.55;;;1.65;;
37851;SDS011;23691;52.486;4.650;2024-02-26T11:16:31;7.45;;;1.88;;
37851;SDS011;23691;52.486;4.650;2024-02-26T11:18:59;5.78;;;1.67;;
37851;SDS011;23691;52.486;4.650;2024-02-26T11:21:25;7.15;;;1.75;;
37851;SDS011;23691;52.486;4.650;2024-02-26T11:24:13;5.95;;;1.60;;
37851;SDS011;23691;52.486;4.650;2024-02-26T11:26:45;9.20;;;1.77;;
37851;SDS011;23691;52.486;4.650;2024-02-26T11:29:16;6.30;;;2.10;;
37851;SDS011;23691;52.486;4.650;2024-02-26T11:31:44;7.25;;;1.80;;
37851;SDS011;23691;52.486;4.650;2024-02-26T11:34:11;8.10;;;2.13;;
37851;SDS011;23691;52.486;4.650;2024-02-26T11:36:36;6.13;;;1.55;;
37851;SDS011;23691;52.486;4.650;2024-02-26T11:39:03;7.43;;;1.55;;
37851;SDS011;23691;52.486;4.650;2024-02-26T11:41:29;6.22;;;1.90;;
37851;SDS011;23691;52.486;4.650;2024-02-26T11:43:59;7.82;;;2.58;;
37851;SDS011;23691;52.486;4.650;2024-02-26T11:46:29;23.67;;;8.43;;
37851;SDS011;23691;52.486;4.650;2024-02-26T11:48:57;7.97;;;2.78;;
37851;SDS011;23691;52.486;4.650;2024-02-26T11:51:28;9.90;;;2.00;;
37851;SDS011;23691;52.486;4.650;2024-02-26T11:53:57;8.45;;;2.10;;
37851;SDS011;23691;52.486;4.650;2024-02-26T11:56:25;7.78;;;2.00;;
37851;SDS011;23691;52.486;4.650;2024-02-26T11:58:58;7.13;;;2.38;;
37851;SDS011;23691;52.486;4.650;2024-02-26T12:04:13;9.98;;;2.35;;
37851;SDS011;23691;52.486;4.650;2024-02-26T12:06:42;7.93;;;2.35;;
37851;SDS011;23691;52.486;4.650;2024-02-26T12:09:09;6.65;;;1.98;;
37851;SDS011;23691;52.486;4.650;2024-02-26T12:11:38;8.48;;;2.17;;
37851;SDS011;23691;52.486;4.650;2024-02-26T12:14:05;6.03;;;2.17;;
37851;SDS011;23691;52.486;4.650;2024-02-26T12:16:38;5.55;;;2.00;;
37851;SDS011;23691;52.486;4.650;2024-02-26T12:19:05;7.63;;;2.13;;
37851;SDS011;23691;52.486;4.650;2024-02-26T12:21:35;7.70;;;2.10;;
37851;SDS011;23691;52.486;4.650;2024-02-26T12:24:14;7.68;;;1.90;;
37851;SDS011;23691;52.486;4.650;2024-02-26T12:26:43;6.60;;;1.55;;
37851;SDS011;23691;52.486;4.650;2024-02-26T12:29:08;5.60;;;2.00;;
37851;SDS011;23691;52.486;4.650;2024-02-26T12:34:02;7.25;;;1.67;;
37851;SDS011;23691;52.486;4.650;2024-02-26T12:36:29;9.63;;;3.30;;
37851;SDS011;23691;52.486;4.650;2024-02-26T12:38:55;10.38;;;3.22;;
37851;SDS011;23691;52.486;4.650;2024-02-26T12:41:21;10.32;;;2.80;;
37851;SDS011;23691;52.486;4.650;2024-02-26T12:43:49;7.22;;;2.63;;
37851;SDS011;23691;52.486;4.650;2024-02-26T12:46:15;8.98;;;3.40;;
37851;SDS011;23691;52.486;4.650;2024-02-26T12:48:44;9.60;;;3.20;;
37851;SDS011;23691;52.486;4.650;2024-02-26T12:51:11;7.85;;;2.50;;
37851;SDS011;23691;52.486;4.650;2024-02-26T12:53:39;8.35;;;2.10;;
37851;SDS011;23691;52.486;4.650;2024-02-26T12:56:06;5.55;;;1.98;;
37851;SDS011;23691;52.486;4.650;2024-02-26T12:58:34;8.18;;;1.98;;
37851;SDS011;23691;52.486;4.650;2024-02-26T13:01:00;7.75;;;2.25;;
37851;SDS011;23691;52.486;4.650;2024-02-26T13:03:26;9.30;;;2.33;;
37851;SDS011;23691;52.486;4.650;2024-02-26T13:05:52;8.82;;;2.40;;
37851;SDS011;23691;52.486;4.650;2024-02-26T13:08:21;7.95;;;2.20;;
37851;SDS011;23691;52.486;4.650;2024-02-26T13:10:47;8.18;;;2.33;;
37851;SDS011;23691;52.486;4.650;2024-02-26T13:13:17;9.73;;;2.42;;
37851;SDS011;23691;52.486;4.650;2024-02-26T13:15:43;9.68;;;2.45;;
37851;SDS011;23691;52.486;4.650;2024-02-26T13:18:09;11.00;;;4.43;;
37851;SDS011;23691;52.486;4.650;2024-02-26T13:20:36;9.32;;;3.00;;
37851;SDS011;23691;52.486;4.650;2024-02-26T13:23:06;12.38;;;4.10;;
37851;SDS011;23691;52.486;4.650;2024-02-26T13:25:33;8.68;;;3.33;;
37851;SDS011;23691;52.486;4.650;2024-02-26T13:28:17;17.17;;;4.40;;
37851;SDS011;23691;52.486;4.650;2024-02-26T13:30:56;11.35;;;3.55;;
37851;SDS011;23691;52.486;4.650;2024-02-26T13:33:23;11.27;;;3.35;;
37851;SDS011;23691;52.486;4.650;2024-02-26T13:35:49;8.10;;;2.30;;
37851;SDS011;23691;52.486;4.650;2024-02-26T13:38:15;8.93;;;2.70;;
37851;SDS011;23691;52.486;4.650;2024-02-26T13:40:41;6.97;;;2.58;;
37851;SDS011;23691;52.486;4.650;2024-02-26T13:43:06;7.35;;;2.50;;
37851;SDS011;23691;52.486;4.650;2024-02-26T13:45:35;12.60;;;2.88;;
37851;SDS011;23691;52.486;4.650;2024-02-26T13:48:02;9.43;;;2.67;;
37851;SDS011;23691;52.486;4.650;2024-02-26T13:50:29;9.60;;;2.67;;
37851;SDS011;23691;52.486;4.650;2024-02-26T13:52:54;8.35;;;2.25;;
37851;SDS011;23691;52.486;4.650;2024-02-26T13:55:21;9.48;;;2.60;;
37851;SDS011;23691;52.486;4.650;2024-02-26T13:57:49;8.35;;;2.30;;
37851;SDS011;23691;52.486;4.650;2024-02-26T14:00:17;9.82;;;2.13;;
37851;SDS011;23691;52.486;4.650;2024-02-26T14:02:43;8.95;;;2.40;;
37851;SDS011;23691;52.486;4.650;2024-02-26T14:05:08;9.00;;;2.25;;
37851;SDS011;23691;52.486;4.650;2024-02-26T14:07:34;11.50;;;2.60;;
37851;SDS011;23691;52.486;4.650;2024-02-26T14:09:59;8.70;;;2.45;;
37851;SDS011;23691;52.486;4.650;2024-02-26T14:12:24;8.70;;;2.45;;
37851;SDS011;23691;52.486;4.650;2024-02-26T14:14:50;11.18;;;2.25;;
37851;SDS011;23691;52.486;4.650;2024-02-26T14:17:18;9.30;;;2.20;;
37851;SDS011;23691;52.486;4.650;2024-02-26T14:19:43;10.18;;;2.47;;
37851;SDS011;23691;52.486;4.650;2024-02-26T14:22:12;10.30;;;2.33;;
37851;SDS011;23691;52.486;4.650;2024-02-26T14:24:38;9.77;;;2.28;;
37851;SDS011;23691;52.486;4.650;2024-02-26T14:27:04;10.43;;;2.15;;
37851;SDS011;23691;52.486;4.650;2024-02-26T14:29:30;13.65;;;2.10;;
37851;SDS011;23691;52.486;4.650;2024-02-26T14:31:55;10.80;;;1.85;;
37851;SDS011;23691;52.486;4.650;2024-02-26T14:34:21;11.77;;;2.10;;
37851;SDS011;23691;52.486;4.650;2024-02-26T14:36:47;9.15;;;1.80;;
37851;SDS011;23691;52.486;4.650;2024-02-26T14:39:12;10.27;;;1.70;;
37851;SDS011;23691;52.486;4.650;2024-02-26T14:41:38;11.18;;;2.03;;
37851;SDS011;23691;52.486;4.650;2024-02-26T14:44:04;7.85;;;1.60;;